sensor_id;sensor_type;location;lat;lon;timestamp;P1;durP1;ratioP1;P2;durP2;ratioP2
43823;SDS011;29470;53.550;9.926;2023-05-23T00:04:51;20.25;;;15.98;;
43823;SDS011;29470;53.550;9.926;2023-05-23T00:09:58;19.73;;;15.80;;
43823;SDS011;29470;53.550;9.926;2023-05-23T00:15:03;22.80;;;16.02;;
43823;SDS011;29470;53.550;9.926;2023-05-23T00:20:09;19.10;;;15.30;;
43823;SDS011;29470;53.550;9.926;2023-05-23T00:25:12;18.95;;;15.60;;
43823;SDS011;29470;53.550;9.926;2023-05-23T00:30:16;18.05;;;14.50;;
43823;SDS011;29470;53.550;9.926;2023-05-23T00:35:19;15.38;;;12.30;;
43823;SDS011;29470;53.550;9.926;2023-05-23T00:40:24;13.82;;;11.90;;
43823;SDS011;29470;53.550;9.926;2023-05-23T00:45:28;14.23;;;11.77;;
43823;SDS011;29470;53.550;9.926;2023-05-23T00:50:32;14.73;;;11.57;;
43823;SDS011;29470;53.550;9.926;2023-05-23T00:55:36;13.43;;;11.55;;
43823;SDS011;29470;53.550;9.926;2023-05-23T01:00:41;14.55;;;12.00;;
43823;SDS011;29470;53.550;9.926;2023-05-23T01:05:45;17.23;;;12.48;;
43823;SDS011;29470;53.550;9.926;2023-05-23T01:10:48;16.10;;;12.77;;
43823;SDS011;29470;53.550;9.926;2023-05-23T01:15:54;16.55;;;11.88;;
43823;SDS011;29470;53.550;9.926;2023-05-23T01:21:05;19.40;;;12.70;;
43823;SDS011;29470;53.550;9.926;2023-05-23T01:26:21;17.10;;;12.57;;
43823;SDS011;29470;53.550;9.926;2023-05-23T01:31:37;19.83;;;14.30;;
43823;SDS011;29470;53.550;9.926;2023-05-23T01:36:44;23.30;;;15.38;;
43823;SDS011;29470;53.550;9.926;2023-05-23T01:41:51;32.85;;;24.65;;
43823;SDS011;29470;53.550;9.926;2023-05-23T01:46:56;38.45;;;28.00;;
43823;SDS011;29470;53.550;9.926;2023-05-23T01:51:59;38.45;;;28.90;;
43823;SDS011;29470;53.550;9.926;2023-05-23T01:57:03;43.45;;;31.50;;
43823;SDS011;29470;53.550;9.926;2023-05-23T02:02:08;48.50;;;33.60;;
43823;SDS011;29470;53.550;9.926;2023-05-23T02:07:12;55.33;;;35.75;;
43823;SDS011;29470;53.550;9.926;2023-05-23T02:12:15;62.47;;;37.83;;
43823;SDS011;29470;53.550;9.926;2023-05-23T02:17:19;63.20;;;40.10;;
43823;SDS011;29470;53.550;9.926;2023-05-23T02:22:24;59.80;;;37.65;;
43823;SDS011;29470;53.550;9.926;2023-05-23T02:27:27;64.78;;;39.35;;
43823;SDS011;29470;53.550;9.926;2023-05-23T02:32:31;63.88;;;37.95;;
43823;SDS011;29470;53.550;9.926;2023-05-23T02:37:35;67.20;;;36.67;;
43823;SDS011;29470;53.550;9.926;2023-05-23T02:42:38;63.15;;;35.20;;
43823;SDS011;29470;53.550;9.926;2023-05-23T02:47:42;58.35;;;33.80;;
43823;SDS011;29470;53.550;9.926;2023-05-23T02:52:46;63.67;;;33.95;;
43823;SDS011;29470;53.550;9.926;2023-05-23T02:57:54;60.90;;;35.70;;
43823;SDS011;29470;53.550;9.926;2023-05-23T03:02:58;62.13;;;34.58;;
43823;SDS011;29470;53.550;9.926;2023-05-23T03:08:02;60.97;;;34.72;;
43823;SDS011;29470;53.550;9.926;2023-05-23T03:13:05;58.58;;;34.15;;
43823;SDS011;29470;53.550;9.926;2023-05-23T03:18:10;63.50;;;34.40;;
43823;SDS011;29470;53.550;9.926;2023-05-23T03:23:13;55.83;;;32.20;;
43823;SDS011;29470;53.550;9.926;2023-05-23T03:28:18;59.00;;;32.63;;
43823;SDS011;29470;53.550;9.926;2023-05-23T03:33:22;57.95;;;32.58;;
43823;SDS011;29470;53.550;9.926;2023-05-23T03:38:26;56.53;;;31.52;;
43823;SDS011;29470;53.550;9.926;2023-05-23T03:43:29;48.97;;;29.70;;
43823;SDS011;29470;53.550;9.926;2023-05-23T03:48:34;46.60;;;28.02;;
43823;SDS011;29470;53.550;9.926;2023-05-23T03:53:38;50.50;;;27.95;;
43823;SDS011;29470;53.550;9.926;2023-05-23T03:58:41;49.70;;;28.63;;
43823;SDS011;29470;53.550;9.926;2023-05-23T04:03:49;46.35;;;27.20;;
43823;SDS011;29470;53.550;9.926;2023-05-23T04:08:53;48.88;;;27.45;;
43823;SDS011;29470;53.550;9.926;2023-05-23T04:13:56;47.20;;;25.52;;
43823;SDS011;29470;53.550;9.926;2023-05-23T04:19:01;44.55;;;24.60;;
43823;SDS011;29470;53.550;9.926;2023-05-23T04:24:06;44.40;;;24.77;;
43823;SDS011;29470;53.550;9.926;2023-05-23T04:29:09;49.25;;;24.92;;
43823;SDS011;29470;53.550;9.926;2023-05-23T04:34:14;42.42;;;23.77;;
43823;SDS011;29470;53.550;9.926;2023-05-23T04:39:17;45.70;;;24.92;;
43823;SDS011;29470;53.550;9.926;2023-05-23T04:44:40;45.20;;;25.70;;
43823;SDS011;29470;53.550;9.926;2023-05-23T04:49:49;52.30;;;25.60;;
43823;SDS011;29470;53.550;9.926;2023-05-23T04:54:54;55.75;;;27.75;;
43823;SDS011;29470;53.550;9.926;2023-05-23T04:59:57;53.58;;;27.58;;
43823;SDS011;29470;53.550;9.926;2023-05-23T05:05:04;60.33;;;28.58;;
43823;SDS011;29470;53.550;9.926;2023-05-23T05:10:09;51.63;;;28.30;;
43823;SDS011;29470;53.550;9.926;2023-05-23T05:15:17;55.45;;;28.55;;
43823;SDS011;29470;53.550;9.926;2023-05-23T05:20:26;65.25;;;31.17;;
43823;SDS011;29470;53.550;9.926;2023-05-23T05:25:29;63.13;;;31.17;;
43823;SDS011;29470;53.550;9.926;2023-05-23T05:30:36;63.95;;;31.95;;
43823;SDS011;29470;53.550;9.926;2023-05-23T05:35:41;70.70;;;32.05;;
43823;SDS011;29470;53.550;9.926;2023-05-23T05:40:44;63.88;;;30.35;;
43823;SDS011;29470;53.550;9.926;2023-05-23T05:45:48;63.33;;;31.10;;
43823;SDS011;29470;53.550;9.926;2023-05-23T05:50:52;61.47;;;30.88;;
43823;SDS011;29470;53.550;9.926;2023-05-23T05:55:56;59.08;;;30.33;;
43823;SDS011;29470;53.550;9.926;2023-05-23T06:00:58;52.53;;;27.85;;
43823;SDS011;29470;53.550;9.926;2023-05-23T06:06:03;59.40;;;28.88;;
43823;SDS011;29470;53.550;9.926;2023-05-23T06:11:07;57.63;;;28.85;;
43823;SDS011;29470;53.550;9.926;2023-05-23T06:16:10;50.65;;;27.63;;
43823;SDS011;29470;53.550;9.926;2023-05-23T06:21:15;63.33;;;30.45;;
43823;SDS011;29470;53.550;9.926;2023-05-23T06:31:26;65.55;;;30.77;;
43823;SDS011;29470;53.550;9.926;2023-05-23T06:36:30;70.90;;;31.23;;
43823;SDS011;29470;53.550;9.926;2023-05-23T06:41:33;52.17;;;26.80;;
43823;SDS011;29470;53.550;9.926;2023-05-23T06:46:35;33.88;;;17.63;;
43823;SDS011;29470;53.550;9.926;2023-05-23T06:51:42;34.13;;;19.55;;
43823;SDS011;29470;53.550;9.926;2023-05-23T06:56:45;39.42;;;23.20;;
43823;SDS011;29470;53.550;9.926;2023-05-23T07:01:49;40.10;;;24.40;;
43823;SDS011;29470;53.550;9.926;2023-05-23T07:06:53;36.90;;;23.25;;
43823;SDS011;29470;53.550;9.926;2023-05-23T07:11:56;26.17;;;17.85;;
43823;SDS011;29470;53.550;9.926;2023-05-23T07:16:59;21.05;;;14.65;;
43823;SDS011;29470;53.550;9.926;2023-05-23T07:22:04;18.17;;;12.50;;
43823;SDS011;29470;53.550;9.926;2023-05-23T07:27:10;15.63;;;11.48;;
43823;SDS011;29470;53.550;9.926;2023-05-23T07:32:12;14.95;;;10.48;;
43823;SDS011;29470;53.550;9.926;2023-05-23T07:37:18;15.70;;;9.93;;
43823;SDS011;29470;53.550;9.926;2023-05-23T07:42:21;13.70;;;9.50;;
43823;SDS011;29470;53.550;9.926;2023-05-23T07:47:24;16.17;;;8.63;;
43823;SDS011;29470;53.550;9.926;2023-05-23T07:52:29;10.60;;;6.60;;
43823;SDS011;29470;53.550;9.926;2023-05-23T07:57:33;11.07;;;6.32;;
43823;SDS011;29470;53.550;9.926;2023-05-23T08:02:36;10.88;;;6.15;;
43823;SDS011;29470;53.550;9.926;2023-05-23T08:07:40;11.38;;;5.93;;
43823;SDS011;29470;53.550;9.926;2023-05-23T08:12:44;8.18;;;5.90;;
43823;SDS011;29470;53.550;9.926;2023-05-23T08:17:49;7.80;;;5.10;;
43823;SDS011;29470;53.550;9.926;2023-05-23T08:22:59;9.45;;;4.63;;
43823;SDS011;29470;53.550;9.926;2023-05-23T08:28:03;8.65;;;5.72;;
43823;SDS011;29470;53.550;9.926;2023-05-23T08:33:21;9.02;;;5.65;;
43823;SDS011;29470;53.550;9.926;2023-05-23T08:38:29;9.75;;;6.35;;
43823;SDS011;29470;53.550;9.926;2023-05-23T08:43:43;10.32;;;7.03;;
43823;SDS011;29470;53.550;9.926;2023-05-23T08:48:52;13.48;;;7.70;;
43823;SDS011;29470;53.550;9.926;2023-05-23T08:54:00;10.95;;;7.68;;
43823;SDS011;29470;53.550;9.926;2023-05-23T08:59:04;7.00;;;4.85;;
43823;SDS011;29470;53.550;9.926;2023-05-23T09:04:08;10.45;;;5.40;;
43823;SDS011;29470;53.550;9.926;2023-05-23T09:09:33;13.02;;;6.97;;
43823;SDS011;29470;53.550;9.926;2023-05-23T09:14:39;13.73;;;7.80;;
43823;SDS011;29470;53.550;9.926;2023-05-23T09:19:43;13.63;;;8.05;;
43823;SDS011;29470;53.550;9.926;2023-05-23T09:24:57;12.63;;;7.18;;
43823;SDS011;29470;53.550;9.926;2023-05-23T09:30:04;14.98;;;6.72;;
43823;SDS011;29470;53.550;9.926;2023-05-23T09:35:08;12.10;;;6.70;;
43823;SDS011;29470;53.550;9.926;2023-05-23T09:40:15;11.25;;;5.45;;
43823;SDS011;29470;53.550;9.926;2023-05-23T09:45:28;10.60;;;5.22;;
43823;SDS011;29470;53.550;9.926;2023-05-23T09:50:34;12.68;;;5.40;;
43823;SDS011;29470;53.550;9.926;2023-05-23T09:55:39;7.28;;;4.45;;
43823;SDS011;29470;53.550;9.926;2023-05-23T10:00:42;7.07;;;3.42;;
43823;SDS011;29470;53.550;9.926;2023-05-23T10:05:48;8.15;;;3.83;;
43823;SDS011;29470;53.550;9.926;2023-05-23T10:16:39;7.28;;;3.17;;
43823;SDS011;29470;53.550;9.926;2023-05-23T10:21:49;11.63;;;3.60;;
43823;SDS011;29470;53.550;9.926;2023-05-23T10:26:56;9.55;;;2.80;;
43823;SDS011;29470;53.550;9.926;2023-05-23T10:32:01;9.05;;;3.47;;
43823;SDS011;29470;53.550;9.926;2023-05-23T10:37:06;8.73;;;2.75;;
43823;SDS011;29470;53.550;9.926;2023-05-23T10:42:12;9.52;;;2.50;;
43823;SDS011;29470;53.550;9.926;2023-05-23T10:47:25;7.97;;;2.97;;
43823;SDS011;29470;53.550;9.926;2023-05-23T10:52:29;5.95;;;2.80;;
43823;SDS011;29470;53.550;9.926;2023-05-23T10:57:41;6.38;;;2.90;;
43823;SDS011;29470;53.550;9.926;2023-05-23T11:02:53;7.97;;;3.08;;
43823;SDS011;29470;53.550;9.926;2023-05-23T11:08:08;9.82;;;3.13;;
43823;SDS011;29470;53.550;9.926;2023-05-23T11:13:14;10.25;;;3.35;;
43823;SDS011;29470;53.550;9.926;2023-05-23T11:18:22;8.77;;;3.17;;
43823;SDS011;29470;53.550;9.926;2023-05-23T11:23:38;13.23;;;3.90;;
43823;SDS011;29470;53.550;9.926;2023-05-23T11:28:54;12.30;;;4.47;;
43823;SDS011;29470;53.550;9.926;2023-05-23T11:33:59;11.10;;;3.22;;
43823;SDS011;29470;53.550;9.926;2023-05-23T11:39:03;7.90;;;2.80;;
43823;SDS011;29470;53.550;9.926;2023-05-23T11:44:12;10.88;;;3.17;;
43823;SDS011;29470;53.550;9.926;2023-05-23T11:49:16;10.85;;;3.15;;
43823;SDS011;29470;53.550;9.926;2023-05-23T11:54:21;11.73;;;3.10;;
43823;SDS011;29470;53.550;9.926;2023-05-23T11:59:24;12.80;;;4.32;;
43823;SDS011;29470;53.550;9.926;2023-05-23T12:04:30;9.80;;;3.13;;
43823;SDS011;29470;53.550;9.926;2023-05-23T12:09:40;12.13;;;3.70;;
43823;SDS011;29470;53.550;9.926;2023-05-23T12:14:43;12.15;;;3.67;;
43823;SDS011;29470;53.550;9.926;2023-05-23T12:19:48;11.70;;;3.45;;
43823;SDS011;29470;53.550;9.926;2023-05-23T12:24:52;12.30;;;3.33;;
43823;SDS011;29470;53.550;9.926;2023-05-23T12:30:05;9.70;;;3.17;;
43823;SDS011;29470;53.550;9.926;2023-05-23T12:35:11;15.38;;;3.70;;
43823;SDS011;29470;53.550;9.926;2023-05-23T12:40:16;9.77;;;3.13;;
43823;SDS011;29470;53.550;9.926;2023-05-23T12:45:21;11.65;;;2.95;;
43823;SDS011;29470;53.550;9.926;2023-05-23T12:50:26;13.73;;;3.65;;
43823;SDS011;29470;53.550;9.926;2023-05-23T12:55:31;8.82;;;3.05;;
43823;SDS011;29470;53.550;9.926;2023-05-23T13:00:34;9.73;;;3.10;;
43823;SDS011;29470;53.550;9.926;2023-05-23T13:05:39;12.95;;;3.63;;
43823;SDS011;29470;53.550;9.926;2023-05-23T13:10:42;12.02;;;3.67;;
43823;SDS011;29470;53.550;9.926;2023-05-23T13:15:45;10.15;;;3.10;;
43823;SDS011;29470;53.550;9.926;2023-05-23T13:20:52;13.10;;;3.63;;
43823;SDS011;29470;53.550;9.926;2023-05-23T13:25:58;14.55;;;4.15;;
43823;SDS011;29470;53.550;9.926;2023-05-23T13:31:02;10.70;;;3.33;;
43823;SDS011;29470;53.550;9.926;2023-05-23T13:36:06;6.93;;;3.40;;
43823;SDS011;29470;53.550;9.926;2023-05-23T13:41:09;9.57;;;3.05;;
43823;SDS011;29470;53.550;9.926;2023-05-23T13:46:13;14.40;;;3.85;;
43823;SDS011;29470;53.550;9.926;2023-05-23T13:51:18;10.90;;;3.35;;
43823;SDS011;29470;53.550;9.926;2023-05-23T13:56:21;10.68;;;3.33;;
43823;SDS011;29470;53.550;9.926;2023-05-23T14:01:24;14.43;;;4.20;;
43823;SDS011;29470;53.550;9.926;2023-05-23T14:06:29;9.52;;;2.90;;
43823;SDS011;29470;53.550;9.926;2023-05-23T14:11:33;14.07;;;3.40;;
43823;SDS011;29470;53.550;9.926;2023-05-23T14:16:36;14.20;;;3.90;;
43823;SDS011;29470;53.550;9.926;2023-05-23T14:21:40;12.40;;;5.18;;
43823;SDS011;29470;53.550;9.926;2023-05-23T14:26:45;13.70;;;6.22;;
43823;SDS011;29470;53.550;9.926;2023-05-23T14:31:48;15.80;;;4.18;;
43823;SDS011;29470;53.550;9.926;2023-05-23T14:36:52;16.20;;;3.78;;
43823;SDS011;29470;53.550;9.926;2023-05-23T14:41:56;11.23;;;3.10;;
43823;SDS011;29470;53.550;9.926;2023-05-23T14:46:59;12.02;;;3.42;;
43823;SDS011;29470;53.550;9.926;2023-05-23T14:52:03;15.85;;;3.65;;
43823;SDS011;29470;53.550;9.926;2023-05-23T14:57:06;11.93;;;2.95;;
43823;SDS011;29470;53.550;9.926;2023-05-23T15:02:09;9.68;;;2.85;;
43823;SDS011;29470;53.550;9.926;2023-05-23T15:07:14;13.70;;;3.33;;
43823;SDS011;29470;53.550;9.926;2023-05-23T15:12:18;10.02;;;2.78;;
43823;SDS011;29470;53.550;9.926;2023-05-23T15:17:21;19.00;;;3.33;;
43823;SDS011;29470;53.550;9.926;2023-05-23T15:22:28;13.32;;;3.17;;
43823;SDS011;29470;53.550;9.926;2023-05-23T15:27:39;11.77;;;2.85;;
43823;SDS011;29470;53.550;9.926;2023-05-23T15:32:45;16.75;;;3.35;;
43823;SDS011;29470;53.550;9.926;2023-05-23T15:37:52;12.48;;;3.10;;
43823;SDS011;29470;53.550;9.926;2023-05-23T15:42:55;14.43;;;2.80;;
43823;SDS011;29470;53.550;9.926;2023-05-23T15:47:58;15.70;;;3.53;;
43823;SDS011;29470;53.550;9.926;2023-05-23T15:53:02;11.15;;;2.92;;
43823;SDS011;29470;53.550;9.926;2023-05-23T15:58:05;12.20;;;2.78;;
43823;SDS011;29470;53.550;9.926;2023-05-23T16:03:09;12.07;;;3.17;;
43823;SDS011;29470;53.550;9.926;2023-05-23T16:08:15;11.98;;;3.00;;
43823;SDS011;29470;53.550;9.926;2023-05-23T16:13:18;14.10;;;2.75;;
43823;SDS011;29470;53.550;9.926;2023-05-23T16:18:21;11.43;;;3.03;;
43823;SDS011;29470;53.550;9.926;2023-05-23T16:23:26;13.23;;;3.20;;
43823;SDS011;29470;53.550;9.926;2023-05-23T16:28:29;14.80;;;3.10;;
43823;SDS011;29470;53.550;9.926;2023-05-23T16:33:31;14.32;;;3.38;;
43823;SDS011;29470;53.550;9.926;2023-05-23T16:38:36;15.48;;;2.97;;
43823;SDS011;29470;53.550;9.926;2023-05-23T16:43:40;14.90;;;2.38;;
43823;SDS011;29470;53.550;9.926;2023-05-23T16:48:43;19.85;;;3.33;;
43823;SDS011;29470;53.550;9.926;2023-05-23T16:53:47;12.07;;;2.60;;
43823;SDS011;29470;53.550;9.926;2023-05-23T16:58:50;14.48;;;2.95;;
43823;SDS011;29470;53.550;9.926;2023-05-23T17:03:53;14.13;;;2.58;;
43823;SDS011;29470;53.550;9.926;2023-05-23T17:08:58;11.73;;;2.70;;
43823;SDS011;29470;53.550;9.926;2023-05-23T17:14:01;10.40;;;2.83;;
43823;SDS011;29470;53.550;9.926;2023-05-23T17:19:04;14.48;;;2.80;;
43823;SDS011;29470;53.550;9.926;2023-05-23T17:24:09;18.55;;;2.90;;
43823;SDS011;29470;53.550;9.926;2023-05-23T17:29:12;12.95;;;3.08;;
43823;SDS011;29470;53.550;9.926;2023-05-23T17:34:17;14.52;;;2.72;;
43823;SDS011;29470;53.550;9.926;2023-05-23T17:39:22;14.02;;;3.35;;
43823;SDS011;29470;53.550;9.926;2023-05-23T17:44:25;17.83;;;3.53;;
43823;SDS011;29470;53.550;9.926;2023-05-23T17:49:28;12.25;;;2.90;;
43823;SDS011;29470;53.550;9.926;2023-05-23T18:00:01;12.48;;;3.00;;
43823;SDS011;29470;53.550;9.926;2023-05-23T18:05:12;16.52;;;3.00;;
43823;SDS011;29470;53.550;9.926;2023-05-23T18:10:19;14.90;;;3.05;;
43823;SDS011;29470;53.550;9.926;2023-05-23T18:15:22;18.13;;;3.22;;
43823;SDS011;29470;53.550;9.926;2023-05-23T18:20:26;11.48;;;2.75;;
43823;SDS011;29470;53.550;9.926;2023-05-23T18:25:30;16.92;;;3.35;;
43823;SDS011;29470;53.550;9.926;2023-05-23T18:30:33;14.65;;;3.63;;
43823;SDS011;29470;53.550;9.926;2023-05-23T18:35:37;14.25;;;3.50;;
43823;SDS011;29470;53.550;9.926;2023-05-23T18:40:41;16.10;;;2.92;;
43823;SDS011;29470;53.550;9.926;2023-05-23T18:45:45;13.82;;;3.83;;
43823;SDS011;29470;53.550;9.926;2023-05-23T18:50:48;16.45;;;3.45;;
43823;SDS011;29470;53.550;9.926;2023-05-23T18:55:53;16.60;;;3.60;;
43823;SDS011;29470;53.550;9.926;2023-05-23T19:00:56;17.25;;;3.13;;
43823;SDS011;29470;53.550;9.926;2023-05-23T19:06:06;10.30;;;3.17;;
43823;SDS011;29470;53.550;9.926;2023-05-23T19:17:10;9.55;;;2.80;;
43823;SDS011;29470;53.550;9.926;2023-05-23T19:39:49;15.02;;;3.03;;
43823;SDS011;29470;53.550;9.926;2023-05-23T19:44:52;11.70;;;3.08;;
43823;SDS011;29470;53.550;9.926;2023-05-23T19:49:55;18.08;;;3.85;;
43823;SDS011;29470;53.550;9.926;2023-05-23T19:55:00;17.98;;;3.35;;
43823;SDS011;29470;53.550;9.926;2023-05-23T20:00:04;18.33;;;4.07;;
43823;SDS011;29470;53.550;9.926;2023-05-23T20:05:10;18.88;;;3.47;;
43823;SDS011;29470;53.550;9.926;2023-05-23T20:10:18;22.30;;;3.55;;
43823;SDS011;29470;53.550;9.926;2023-05-23T20:15:21;16.45;;;3.30;;
43823;SDS011;29470;53.550;9.926;2023-05-23T20:20:40;14.60;;;2.97;;
43823;SDS011;29470;53.550;9.926;2023-05-23T20:25:44;16.75;;;3.40;;
43823;SDS011;29470;53.550;9.926;2023-05-23T20:30:47;19.73;;;3.85;;
43823;SDS011;29470;53.550;9.926;2023-05-23T20:35:50;18.92;;;5.07;;
43823;SDS011;29470;53.550;9.926;2023-05-23T20:40:55;21.88;;;4.88;;
43823;SDS011;29470;53.550;9.926;2023-05-23T20:46:02;17.67;;;3.60;;
43823;SDS011;29470;53.550;9.926;2023-05-23T20:51:06;18.85;;;3.50;;
43823;SDS011;29470;53.550;9.926;2023-05-23T20:56:11;32.30;;;5.07;;
43823;SDS011;29470;53.550;9.926;2023-05-23T21:01:14;28.13;;;4.80;;
43823;SDS011;29470;53.550;9.926;2023-05-23T21:06:17;25.52;;;5.00;;
43823;SDS011;29470;53.550;9.926;2023-05-23T21:11:21;21.67;;;3.67;;
43823;SDS011;29470;53.550;9.926;2023-05-23T21:16:25;18.38;;;4.28;;
43823;SDS011;29470;53.550;9.926;2023-05-23T21:21:28;22.10;;;4.10;;
43823;SDS011;29470;53.550;9.926;2023-05-23T21:26:32;22.63;;;4.20;;
43823;SDS011;29470;53.550;9.926;2023-05-23T21:31:34;18.75;;;4.25;;
43823;SDS011;29470;53.550;9.926;2023-05-23T21:36:42;22.07;;;5.23;;
43823;SDS011;29470;53.550;9.926;2023-05-23T21:41:46;25.30;;;4.65;;
43823;SDS011;29470;53.550;9.926;2023-05-23T21:46:49;22.90;;;4.45;;
43823;SDS011;29470;53.550;9.926;2023-05-23T21:51:52;24.42;;;5.55;;
43823;SDS011;29470;53.550;9.926;2023-05-23T21:56:56;23.25;;;4.45;;
43823;SDS011;29470;53.550;9.926;2023-05-23T22:01:59;21.13;;;4.43;;
43823;SDS011;29470;53.550;9.926;2023-05-23T22:07:02;20.15;;;4.32;;
43823;SDS011;29470;53.550;9.926;2023-05-23T22:12:07;23.08;;;4.20;;
43823;SDS011;29470;53.550;9.926;2023-05-23T22:17:10;25.20;;;4.55;;
43823;SDS011;29470;53.550;9.926;2023-05-23T22:22:14;19.67;;;3.97;;
43823;SDS011;29470;53.550;9.926;2023-05-23T22:27:18;19.20;;;4.63;;
43823;SDS011;29470;53.550;9.926;2023-05-23T22:32:21;24.27;;;4.65;;
43823;SDS011;29470;53.550;9.926;2023-05-23T22:37:24;26.10;;;4.90;;
43823;SDS011;29470;53.550;9.926;2023-05-23T22:42:29;23.02;;;4.03;;
43823;SDS011;29470;53.550;9.926;2023-05-23T22:47:31;22.42;;;4.68;;
43823;SDS011;29470;53.550;9.926;2023-05-23T22:52:34;23.33;;;4.57;;
43823;SDS011;29470;53.550;9.926;2023-05-23T22:57:40;26.95;;;5.88;;
43823;SDS011;29470;53.550;9.926;2023-05-23T23:02:44;19.27;;;4.38;;
43823;SDS011;29470;53.550;9.926;2023-05-23T23:07:47;29.73;;;4.97;;
43823;SDS011;29470;53.550;9.926;2023-05-23T23:12:51;22.02;;;4.55;;
43823;SDS011;29470;53.550;9.926;2023-05-23T23:17:54;23.85;;;5.25;;
43823;SDS011;29470;53.550;9.926;2023-05-23T23:22:57;24.40;;;5.13;;
43823;SDS011;29470;53.550;9.926;2023-05-23T23:28:01;22.00;;;4.65;;
43823;SDS011;29470;53.550;9.926;2023-05-23T23:33:04;31.40;;;4.97;;
43823;SDS011;29470;53.550;9.926;2023-05-23T23:38:07;26.45;;;4.82;;
43823;SDS011;29470;53.550;9.926;2023-05-23T23:43:11;18.33;;;4.55;;
43823;SDS011;29470;53.550;9.926;2023-05-23T23:48:14;22.40;;;5.35;;
43823;SDS011;29470;53.550;9.926;2023-05-23T23:53:17;22.30;;;4.90;;
43823;SDS011;29470;53.550;9.926;2023-05-23T23:58:23;25.92;;;4.53;;
